Terminal Aerodrome Forecast
Issued by NWS

Home | Current Version | Previous Version | Text Only | Print | Product List | Glossary Off
Versions: 1 2 3 4 5 6 7 8 9 10 11 12 13 14 15 16 17 18 19 20

000
FTUS41 KCLE 171739
TAFFDY
TAF
KFDY 171739Z 1718/1818 25015G25KT P6SM BKN015
     FM172000 25012KT 6SM BR OVC008
     FM180300 26010KT 5SM BR OVC006
     FM181400 27008KT P6SM OVC008=

USA.gov is the U.S. government's official web portal to all federal, state and local government web resources and services.